createdAt,value
2023-03-01T00:00:39.605Z,11.77
2023-03-01T00:03:25.595Z,12.63
2023-03-01T00:06:11.886Z,13.27
2023-03-01T00:08:57.448Z,11.63
2023-03-01T00:11:43.513Z,12.23
2023-03-01T00:14:28.966Z,12.13
2023-03-01T00:17:14.580Z,12.65
2023-03-01T00:20:00.199Z,12.32
2023-03-01T00:22:45.853Z,11.55
2023-03-01T00:25:31.381Z,11.93
2023-03-01T00:28:17.766Z,12.20
2023-03-01T00:31:09.055Z,12.35
2023-03-01T00:33:58.093Z,13.00
2023-03-01T00:36:44.193Z,13.95
2023-03-01T00:39:29.682Z,11.63
2023-03-01T00:42:15.257Z,11.63
2023-03-01T00:45:00.759Z,11.90
2023-03-01T00:47:46.306Z,12.15
2023-03-01T00:50:31.810Z,12.50
2023-03-01T00:53:17.335Z,13.07
2023-03-01T00:56:03.779Z,12.52
2023-03-01T00:58:49.602Z,12.43
2023-03-01T01:01:35.450Z,12.95
2023-03-01T01:04:21.231Z,12.90
2023-03-01T01:07:06.709Z,13.00
2023-03-01T01:09:52.341Z,12.40
2023-03-01T01:12:38.363Z,13.32
2023-03-01T01:15:24.039Z,12.77
2023-03-01T01:18:09.861Z,13.07
2023-03-01T01:20:55.377Z,13.00
2023-03-01T01:23:41.754Z,13.38
2023-03-01T01:26:30.833Z,14.02
2023-03-01T01:29:16.764Z,12.50
2023-03-01T01:32:02.608Z,12.82
2023-03-01T01:34:47.971Z,13.23
2023-03-01T01:37:35.517Z,12.65
2023-03-01T01:40:21.259Z,12.80
2023-03-01T01:43:17.402Z,13.27
2023-03-01T01:46:15.897Z,12.93
2023-03-01T01:49:05.879Z,13.43
2023-03-01T01:57:49.848Z,12.05
2023-03-01T02:00:35.940Z,12.45
2023-03-01T02:03:30.753Z,12.60
2023-03-01T02:06:39.682Z,12.43
2023-03-01T02:09:26.206Z,13.27
2023-03-01T02:12:12.010Z,13.30
2023-03-01T02:14:57.685Z,13.15
2023-03-01T02:17:43.591Z,12.90
2023-03-01T02:20:32.435Z,13.45
2023-03-01T02:23:18.363Z,13.13
2023-03-01T02:26:14.822Z,12.45
2023-03-01T02:29:00.816Z,13.48
2023-03-01T02:31:46.501Z,12.80
2023-03-01T02:34:33.128Z,13.25
2023-03-01T02:37:25.566Z,12.50
2023-03-01T02:40:18.321Z,13.90
2023-03-01T02:43:07.191Z,12.73
2023-03-01T02:45:54.148Z,13.40
2023-03-01T02:48:51.779Z,12.80
2023-03-01T02:52:11.986Z,13.10
2023-03-01T02:57:45.560Z,14.23
2023-03-01T03:00:36.857Z,13.02
2023-03-01T03:03:23.776Z,13.63
2023-03-01T03:06:10.224Z,12.95
2023-03-01T03:08:56.258Z,13.63
2023-03-01T03:11:42.333Z,14.18
2023-03-01T03:14:28.098Z,16.95
2023-03-01T03:17:13.764Z,25.98
2023-03-01T03:19:59.411Z,21.20
2023-03-01T03:22:45.848Z,17.90
2023-03-01T03:25:31.907Z,16.13
2023-03-01T03:28:17.813Z,14.27
2023-03-01T03:31:04.664Z,13.73
2023-03-01T03:33:50.515Z,13.30
2023-03-01T03:36:36.151Z,14.15
2023-03-01T03:39:21.654Z,14.63
2023-03-01T03:42:07.116Z,12.98
2023-03-01T03:44:52.778Z,13.85
2023-03-01T03:47:38.371Z,13.30
2023-03-01T03:50:23.801Z,13.93
2023-03-01T03:53:12.481Z,12.98
2023-03-01T03:55:58.044Z,13.95
2023-03-01T03:58:43.707Z,13.90
2023-03-01T04:01:29.612Z,13.20
2023-03-01T04:04:18.831Z,13.85
2023-03-01T04:07:04.622Z,14.40
2023-03-01T04:09:50.383Z,12.75
2023-03-01T04:12:35.896Z,13.80
2023-03-01T04:15:21.533Z,13.05
2023-03-01T04:18:08.204Z,14.15
2023-03-01T04:20:56.256Z,13.18
2023-03-01T04:23:42.206Z,13.82
2023-03-01T04:26:28.302Z,13.43
2023-03-01T04:29:13.955Z,14.27
2023-03-01T04:32:00.133Z,14.52
2023-03-01T04:34:46.191Z,16.83
2023-03-01T04:37:31.803Z,15.95
2023-03-01T04:40:17.998Z,16.45
2023-03-01T04:43:04.283Z,16.73
2023-03-01T04:45:49.697Z,16.40
2023-03-01T04:48:35.152Z,16.27
2023-03-01T04:51:20.604Z,15.13
2023-03-01T04:54:09.729Z,14.63
2023-03-01T04:56:55.664Z,14.03
2023-03-01T04:59:41.234Z,15.05
2023-03-01T05:02:26.836Z,22.55
2023-03-01T05:05:12.155Z,20.65
2023-03-01T05:08:00.667Z,17.85
2023-03-01T05:10:56.385Z,17.70
2023-03-01T05:13:42.423Z,16.83
2023-03-01T05:16:28.309Z,15.88
2023-03-01T05:19:16.358Z,17.83
2023-03-01T05:22:07.700Z,16.33
2023-03-01T05:24:54.974Z,19.70
2023-03-01T05:27:40.700Z,19.48
2023-03-01T05:30:26.500Z,17.00
2023-03-01T05:33:14.407Z,15.80
2023-03-01T05:36:01.570Z,15.23
2023-03-01T05:38:48.360Z,16.15
2023-03-01T05:41:34.072Z,15.60
2023-03-01T05:44:19.599Z,15.25
2023-03-01T05:47:05.120Z,15.50
2023-03-01T05:49:51.299Z,15.88
2023-03-01T05:52:37.055Z,17.60
2023-03-01T05:55:22.966Z,17.15
2023-03-01T05:58:16.779Z,15.95
2023-03-01T06:01:02.386Z,17.25
2023-03-01T06:03:47.850Z,17.77
2023-03-01T06:06:38.580Z,16.38
2023-03-01T06:09:24.713Z,17.27
2023-03-01T06:12:11.261Z,15.52
2023-03-01T06:14:58.021Z,17.30
2023-03-01T06:17:45.960Z,18.27
2023-03-01T06:20:31.448Z,16.73
2023-03-01T06:23:17.008Z,17.80
2023-03-01T06:26:07.802Z,17.52
2023-03-01T06:28:53.719Z,17.98
2023-03-01T06:31:39.322Z,18.42
2023-03-01T06:34:24.818Z,19.85
2023-03-01T06:37:10.730Z,18.95
2023-03-01T06:39:56.429Z,19.48
2023-03-01T06:42:44.519Z,18.02
2023-03-01T06:45:30.141Z,18.90
2023-03-01T06:48:16.108Z,18.80
2023-03-01T06:51:02.207Z,17.50
2023-03-01T06:53:48.157Z,18.55
2023-03-01T06:56:34.414Z,17.38
2023-03-01T06:59:20.371Z,19.23
2023-03-01T07:02:06.061Z,19.55
2023-03-01T07:04:52.510Z,18.30
2023-03-01T07:07:38.275Z,18.58
2023-03-01T07:10:24.585Z,17.92
2023-03-01T07:13:10.045Z,18.85
2023-03-01T07:15:56.835Z,18.42
2023-03-01T07:18:42.853Z,18.90
2023-03-01T07:21:28.521Z,18.40
2023-03-01T07:24:14.199Z,19.38
2023-03-01T07:26:59.561Z,19.30
2023-03-01T07:29:45.084Z,20.27
2023-03-01T07:32:30.555Z,18.80
2023-03-01T07:35:16.008Z,18.60
2023-03-01T07:38:02.951Z,20.55
2023-03-01T07:40:48.880Z,18.58
2023-03-01T07:43:35.745Z,18.35
2023-03-01T07:46:21.516Z,20.63
2023-03-01T07:49:07.560Z,17.77
2023-03-01T07:51:53.773Z,19.80
2023-03-01T07:54:40.309Z,19.73
2023-03-01T07:57:26.416Z,20.92
2023-03-01T08:00:12.997Z,18.60
2023-03-01T08:03:02.327Z,19.70
2023-03-01T08:05:48.046Z,19.02
2023-03-01T08:08:34.486Z,19.65
2023-03-01T08:11:20.165Z,19.15
2023-03-01T08:14:07.354Z,20.65
2023-03-01T08:16:53.234Z,19.65
2023-03-01T08:19:39.116Z,19.95
2023-03-01T08:22:24.812Z,19.65
2023-03-01T08:25:10.905Z,21.33
2023-03-01T08:27:56.359Z,20.45
2023-03-01T08:30:42.183Z,20.88
2023-03-01T08:33:28.399Z,20.17
2023-03-01T08:36:14.142Z,21.92
2023-03-01T08:38:59.751Z,21.95
2023-03-01T08:41:48.049Z,21.38
2023-03-01T08:44:34.539Z,22.23
2023-03-01T08:47:20.132Z,20.15
2023-03-01T08:50:06.320Z,20.20
2023-03-01T08:52:52.159Z,20.60
2023-03-01T08:55:37.627Z,22.92
2023-03-01T08:58:23.091Z,20.58
2023-03-01T09:01:13.385Z,20.83
2023-03-01T09:06:44.819Z,21.40
2023-03-01T09:09:30.774Z,21.90
2023-03-01T09:12:16.472Z,20.63
2023-03-01T09:15:02.018Z,20.38
2023-03-01T09:17:47.905Z,20.88
2023-03-01T09:20:33.916Z,20.98
2023-03-01T09:23:19.517Z,21.77
2023-03-01T09:26:05.361Z,20.75
2023-03-01T09:28:53.954Z,20.45
2023-03-01T09:31:40.227Z,20.67
2023-03-01T09:34:25.798Z,21.38
2023-03-01T09:37:11.223Z,20.67
2023-03-01T09:39:57.049Z,20.88
2023-03-01T09:42:53.737Z,19.17
2023-03-01T09:45:45.032Z,20.30
2023-03-01T09:48:39.760Z,20.60
2023-03-01T09:51:30.875Z,20.25
2023-03-01T09:54:16.507Z,21.35
2023-03-01T09:57:25.976Z,20.77
2023-03-01T10:00:48.322Z,19.65
2023-03-01T10:03:42.451Z,20.80
2023-03-01T10:06:34.881Z,20.58
2023-03-01T10:09:22.383Z,19.80
2023-03-01T10:12:13.123Z,20.90
2023-03-01T10:15:05.451Z,20.52
2023-03-01T10:18:01.404Z,20.15
2023-03-01T10:20:53.613Z,20.25
2023-03-01T10:23:39.375Z,18.17
2023-03-01T10:26:43.200Z,19.15
2023-03-01T10:29:40.593Z,19.77
2023-03-01T10:32:27.001Z,19.85
2023-03-01T10:35:18.527Z,19.60
2023-03-01T10:38:09.845Z,18.77
2023-03-01T10:41:06.802Z,18.63
2023-03-01T10:43:55.678Z,19.30
2023-03-01T10:46:41.586Z,20.70
2023-03-01T10:49:27.301Z,18.70
2023-03-01T10:52:23.796Z,18.70
2023-03-01T10:55:28.242Z,20.98
2023-03-01T10:58:20.119Z,19.02
2023-03-01T11:01:25.450Z,17.80
2023-03-01T11:04:14.748Z,16.23
2023-03-01T11:07:01.784Z,17.10
2023-03-01T11:09:47.634Z,17.25
2023-03-01T11:12:34.231Z,16.13
2023-03-01T11:15:28.919Z,14.55
2023-03-01T11:18:31.052Z,13.77
2023-03-01T11:21:22.600Z,14.38
2023-03-01T11:24:13.886Z,14.80
2023-03-01T11:27:03.617Z,15.45
2023-03-01T11:30:02.034Z,14.70
2023-03-01T11:33:04.150Z,14.32
2023-03-01T11:36:25.359Z,16.15
2023-03-01T11:39:18.795Z,15.93
2023-03-01T11:42:19.447Z,14.80
2023-03-01T11:45:09.890Z,14.43
2023-03-01T11:48:18.606Z,14.98
2023-03-01T11:51:10.229Z,15.30
2023-03-01T11:54:18.032Z,15.05
2023-03-01T11:57:31.278Z,14.60
2023-03-01T12:00:34.872Z,14.75
2023-03-01T12:03:26.433Z,14.93
2023-03-01T12:06:27.913Z,15.10
2023-03-01T12:09:50.901Z,14.38
2023-03-01T12:12:45.058Z,15.27
2023-03-01T12:15:30.817Z,16.77
2023-03-01T12:18:35.617Z,16.35
2023-03-01T12:21:37.744Z,16.08
2023-03-01T12:24:47.364Z,15.18
2023-03-01T12:30:33.915Z,14.52
2023-03-01T12:33:47.611Z,16.17
2023-03-01T12:36:49.518Z,16.25
2023-03-01T12:39:37.699Z,15.63
2023-03-01T12:42:53.018Z,16.58
2023-03-01T12:45:52.014Z,16.15
2023-03-01T12:48:59.776Z,15.43
2023-03-01T12:52:13.343Z,15.30
2023-03-01T12:55:00.884Z,14.95
2023-03-01T12:58:03.072Z,14.63
2023-03-01T13:01:16.675Z,15.02
2023-03-01T13:04:20.538Z,15.15
2023-03-01T13:07:09.257Z,15.57
2023-03-01T13:10:28.338Z,15.55
2023-03-01T13:13:25.360Z,15.52
2023-03-01T13:16:46.143Z,16.15
2023-03-01T13:19:33.373Z,16.02
2023-03-01T13:22:32.779Z,15.02
2023-03-01T13:25:21.087Z,14.82
2023-03-01T13:28:47.501Z,15.07
2023-03-01T13:31:33.147Z,15.20
2023-03-01T13:34:49.220Z,14.00
2023-03-01T13:37:38.570Z,16.10
2023-03-01T13:40:24.623Z,15.57
2023-03-01T13:43:31.761Z,16.10
2023-03-01T13:46:24.760Z,16.85
2023-03-01T13:49:15.323Z,16.67
2023-03-01T13:54:47.210Z,16.48
2023-03-01T13:57:37.834Z,15.95
2023-03-01T14:00:34.317Z,16.48
2023-03-01T14:03:21.111Z,16.33
2023-03-01T14:06:15.889Z,17.63
2023-03-01T14:09:16.989Z,16.70
2023-03-01T14:15:16.697Z,16.75
2023-03-01T14:18:08.000Z,15.65
2023-03-01T14:20:53.735Z,17.33
2023-03-01T14:23:43.039Z,16.88
2023-03-01T14:26:28.832Z,17.08
2023-03-01T14:29:36.953Z,17.00
2023-03-01T14:32:26.732Z,16.25
2023-03-01T14:35:39.835Z,17.17
2023-03-01T14:38:38.193Z,16.67
2023-03-01T14:41:26.537Z,17.75
2023-03-01T14:44:24.254Z,16.77
2023-03-01T14:47:23.805Z,17.05
2023-03-01T14:50:27.440Z,16.75
2023-03-01T14:53:29.192Z,16.98
2023-03-01T14:56:18.489Z,17.25
2023-03-01T14:59:04.248Z,16.45
2023-03-01T15:01:51.078Z,16.85
2023-03-01T15:04:36.829Z,16.83
2023-03-01T15:07:35.397Z,15.90
2023-03-01T15:10:23.898Z,17.75
2023-03-01T15:13:23.719Z,16.85
2023-03-01T15:16:13.490Z,16.10
2023-03-01T15:19:07.058Z,16.80
2023-03-01T15:21:53.050Z,16.50
2023-03-01T15:24:38.598Z,17.13
2023-03-01T15:27:26.734Z,16.63
2023-03-01T15:30:35.872Z,17.35
2023-03-01T15:33:32.200Z,17.35
2023-03-01T15:36:37.606Z,17.67
2023-03-01T15:39:51.731Z,17.00
2023-03-01T15:42:37.747Z,15.68
2023-03-01T15:45:28.109Z,16.95
2023-03-01T15:48:20.969Z,16.95
2023-03-01T15:51:14.199Z,18.00
2023-03-01T15:54:04.209Z,16.48
2023-03-01T15:56:51.523Z,17.15
2023-03-01T15:59:37.268Z,16.60
2023-03-01T16:02:25.299Z,17.30
2023-03-01T16:05:32.411Z,17.80
2023-03-01T16:08:19.111Z,16.60
2023-03-01T16:11:17.044Z,21.80
2023-03-01T16:14:02.955Z,20.35
2023-03-01T16:16:51.733Z,21.42
2023-03-01T16:19:39.078Z,20.92
2023-03-01T16:22:26.289Z,21.00
2023-03-01T16:25:14.021Z,22.13
2023-03-01T16:28:01.805Z,22.00
2023-03-01T16:30:51.769Z,22.13
2023-03-01T16:33:38.220Z,21.38
2023-03-01T16:36:25.444Z,21.92
2023-03-01T16:39:11.034Z,21.15
2023-03-01T16:41:56.501Z,20.48
2023-03-01T16:44:42.142Z,21.60
2023-03-01T16:47:28.024Z,19.45
2023-03-01T16:50:13.845Z,22.33
2023-03-01T16:52:59.462Z,21.35
2023-03-01T16:55:46.570Z,21.92
2023-03-01T16:58:32.185Z,20.17
2023-03-01T17:01:21.051Z,21.20
2023-03-01T17:04:07.120Z,21.33
2023-03-01T17:06:53.013Z,22.23
2023-03-01T17:09:38.973Z,20.70
2023-03-01T17:12:24.877Z,21.90
2023-03-01T17:15:12.835Z,21.13
2023-03-01T17:17:58.473Z,21.40
2023-03-01T17:20:44.194Z,20.73
2023-03-01T17:23:31.206Z,20.50
2023-03-01T17:26:17.145Z,21.83
2023-03-01T17:29:05.195Z,23.40
2023-03-01T17:31:51.093Z,21.10
2023-03-01T17:34:37.880Z,21.80
2023-03-01T17:37:23.849Z,22.38
2023-03-01T17:40:10.530Z,20.92
2023-03-01T17:42:57.015Z,20.80
2023-03-01T17:45:47.487Z,21.58
2023-03-01T17:48:33.283Z,20.92
2023-03-01T17:51:18.916Z,21.45
2023-03-01T17:54:04.767Z,21.30
2023-03-01T17:56:51.213Z,21.08
2023-03-01T17:59:37.540Z,20.58
2023-03-01T18:02:23.106Z,21.00
2023-03-01T18:05:09.417Z,21.15
2023-03-01T18:07:55.230Z,19.90
2023-03-01T18:10:41.041Z,20.63
2023-03-01T18:13:26.514Z,20.42
2023-03-01T18:16:14.991Z,19.42
2023-03-01T18:19:01.930Z,20.35
2023-03-01T18:21:47.713Z,21.38
2023-03-01T18:24:33.283Z,20.30
2023-03-01T18:27:19.010Z,20.55
2023-03-01T18:30:06.586Z,19.60
2023-03-01T18:32:56.276Z,20.05
2023-03-01T18:35:42.439Z,20.88
2023-03-01T18:38:29.121Z,19.90
2023-03-01T18:41:15.349Z,19.85
2023-03-01T18:44:02.472Z,19.02
2023-03-01T18:46:48.852Z,20.45
2023-03-01T18:49:34.713Z,18.35
2023-03-01T18:52:20.543Z,19.10
2023-03-01T18:55:06.280Z,19.02
2023-03-01T18:57:52.066Z,20.75
2023-03-01T19:00:37.659Z,19.27
2023-03-01T19:03:23.093Z,19.40
2023-03-01T19:06:08.993Z,19.67
2023-03-01T19:08:55.885Z,19.45
2023-03-01T19:11:41.362Z,20.23
2023-03-01T19:14:27.176Z,21.58
2023-03-01T19:17:12.903Z,20.25
2023-03-01T19:19:58.547Z,19.73
2023-03-01T19:22:44.273Z,27.38
2023-03-01T19:25:29.930Z,26.52
2023-03-01T19:28:15.766Z,26.20
2023-03-01T19:31:02.862Z,23.70
2023-03-01T19:33:48.302Z,24.95
2023-03-01T19:36:34.963Z,25.00
2023-03-01T19:39:20.519Z,24.65
2023-03-01T19:42:06.665Z,25.98
2023-03-01T19:44:52.631Z,26.30
2023-03-01T19:47:38.311Z,26.13
2023-03-01T19:50:24.032Z,26.75
2023-03-01T19:53:09.619Z,28.42
2023-03-01T19:56:00.093Z,26.75
2023-03-01T19:58:50.122Z,26.92
2023-03-01T20:01:37.749Z,27.30
2023-03-01T20:04:23.405Z,27.05
2023-03-01T20:07:09.025Z,25.10
2023-03-01T20:09:54.600Z,23.73
2023-03-01T20:12:40.064Z,23.85
2023-03-01T20:15:25.882Z,24.27
2023-03-01T20:18:14.980Z,25.25
2023-03-01T20:21:02.783Z,24.67
2023-03-01T20:23:50.429Z,24.50
2023-03-01T20:26:36.907Z,25.48
2023-03-01T20:29:22.790Z,23.15
2023-03-01T20:32:09.891Z,25.25
2023-03-01T20:34:55.921Z,23.92
2023-03-01T20:37:41.778Z,22.98
2023-03-01T20:40:28.276Z,23.77
2023-03-01T20:43:13.964Z,23.25
2023-03-01T20:46:02.798Z,23.40
2023-03-01T20:48:48.677Z,24.50
2023-03-01T20:51:34.546Z,22.83
2023-03-01T20:54:20.023Z,23.98
2023-03-01T20:57:05.662Z,23.60
2023-03-01T20:59:51.391Z,23.70
2023-03-01T21:02:38.870Z,23.10
2023-03-01T21:05:24.385Z,24.02
2023-03-01T21:08:10.133Z,23.48
2023-03-01T21:10:56.873Z,23.63
2023-03-01T21:13:44.471Z,26.85
2023-03-01T21:16:30.234Z,23.52
2023-03-01T21:19:16.083Z,21.58
2023-03-01T21:22:01.732Z,23.95
2023-03-01T21:24:50.136Z,24.60
2023-03-01T21:27:38.093Z,22.90
2023-03-01T21:30:24.202Z,24.42
2023-03-01T21:33:09.901Z,22.67
2023-03-01T21:36:00.782Z,24.05
2023-03-01T21:38:48.600Z,21.77
2023-03-01T21:41:36.630Z,22.50
2023-03-01T21:44:23.407Z,20.52
2023-03-01T21:47:10.405Z,19.83
2023-03-01T21:49:56.054Z,20.48
2023-03-01T21:52:41.632Z,21.40
2023-03-01T21:55:27.383Z,20.77
2023-03-01T21:58:12.996Z,21.58
2023-03-01T22:01:10.025Z,21.40
2023-03-01T22:04:00.354Z,20.30
2023-03-01T22:09:34.959Z,18.92
2023-03-01T22:12:20.457Z,19.80
2023-03-01T22:15:06.740Z,20.38
2023-03-01T22:17:52.507Z,20.42
2023-03-01T22:20:38.924Z,20.27
2023-03-01T22:23:24.275Z,20.15
2023-03-01T22:26:24.494Z,20.48
2023-03-01T22:31:58.522Z,19.55
2023-03-01T22:34:43.898Z,19.65
2023-03-01T22:37:29.480Z,20.58
2023-03-01T22:40:15.320Z,20.30
2023-03-01T22:43:01.591Z,21.15
2023-03-01T22:45:47.277Z,20.52
2023-03-01T22:48:32.653Z,20.45
2023-03-01T22:51:21.989Z,19.95
2023-03-01T22:54:09.133Z,22.55
2023-03-01T22:56:55.264Z,21.25
2023-03-01T22:59:41.438Z,21.10
2023-03-01T23:02:27.453Z,20.05
2023-03-01T23:05:13.178Z,21.10
2023-03-01T23:07:58.476Z,22.13
2023-03-01T23:10:43.981Z,22.13
2023-03-01T23:13:29.737Z,20.40
2023-03-01T23:16:16.364Z,20.98
2023-03-01T23:19:01.865Z,22.38
2023-03-01T23:21:50.076Z,21.75
2023-03-01T23:24:35.856Z,22.08
2023-03-01T23:27:21.277Z,22.63
2023-03-01T23:30:09.062Z,21.23
2023-03-01T23:32:54.716Z,22.52
2023-03-01T23:35:40.499Z,21.95
2023-03-01T23:38:26.044Z,23.00
2023-03-01T23:41:12.519Z,23.17
2023-03-01T23:44:00.353Z,22.95
2023-03-01T23:46:47.453Z,21.98
2023-03-01T23:49:33.268Z,21.23
2023-03-01T23:52:18.909Z,22.60
2023-03-01T23:55:06.341Z,24.00
2023-03-01T23:57:52.057Z,22.63
